Terminal Aerodrome Forecast
Issued by NWS Amarillo, TX

Home | Current Version | Previous Version | Text Only | Print | Product List | Glossary On
Versions: 1 2 3 4 5 6 7 8 9 10 11 12 13 14 15 16 17 18
000
FTUS44 KAMA 011720
TAFDHT
TAF
KDHT 011720Z 0118/0218 19011KT P6SM FEW200
     FM012000 20016G25KT P6SM SCT090
     FM020100 18012KT P6SM SCT120
     FM021400 21014KT P6SM FEW200=

USA.gov is the U.S. government's official web portal to all federal, state and local government web resources and services.